Aircraft
UPR1004 PR-ACA A320
SBPA
Salgado Filho International Airport
SBRP
Leite Lopes Airport
Pilot:: Jair
Aircraft:: A320neo V2
Alternate: SBSR
Network: ivao
FLIGHT DETAILS
Distance: 563nm Duration 01h 42m
Cruise Speed: Flight Level: 3340
Validation: Validated Type Charter
Flight Fuel
ZFW: 42290
Block Fuel/Initial FOB: 10463
Flight Fuel: 3891
Cargo
Passengers: 145
Cargo: 10200
ROUTE
ROUTE: sbpa dct sbrp
REMARKS:
DATE
Date: 26-05-09
Departure Time: 2323
Cargo: 10200
FLIGHT DETAILS
Crashed: No
Validator Comments: Validado por Rafael
Flight Rating: 99
LANDING ANALYSIS
Landing wind: 20º/4 kt
Landing heading:
Landing VS:: -260 ft/min
Landing IAS:: 123 kt
Landing Force G: 1.1 G
Landing Bank: -1
Landing Pitch: -4
Landing Flaps: 100
Navigation Lights: ON
Landing Lights: ON
Beacon Lights: ON
Strobe Lights: ON
viserfly

ALTITUDE CHART

viserfly

MAIN EVENTS

DATE EVENT IAS ALTITUDE
2026-05-08 23:21:59 FLYacars version 1.3.5 7 17
2026-05-08 23:22:00 Aircraft boarding in progress 7 17
2026-05-08 23:22:00 FLAPS 25% 7 17
2026-05-08 23:22:00 Navigation Lights ON 7 17
2026-05-08 23:22:00 Beacon Lights ON 7 17
2026-05-08 23:22:00 Strobe Lights ON 7 17
2026-05-08 23:22:00 Landing Lights ON 7 17
2026-05-08 23:22:00 Taxi Lights ON 7 17
2026-05-08 23:22:00 Starting Engine 2 7 17
2026-05-08 23:22:00 Starting Engine 1 7 17
2026-05-08 23:22:40 Simulator Paused 7 17
2026-05-08 23:22:40 Simulator Un-Paused 7 17
2026-05-08 23:23:05 Aircraft taxiing to runway 12 17
2026-05-08 23:23:31 Detected Take-off roll, HDG 276, IAS 163kt, GS 157kt, G-force 1.1g, Pitch -2.5deg, Bank 0.0deg, Wind 270/08kt, Temp 14°C 163 22
2026-05-08 23:23:31 Airborne 163 22
2026-05-08 23:23:31 Incorrect altimeter settings on takeoff 163 22
2026-05-08 23:23:38 Gear UP, IAS 186kt, GS 178kt, ALT 205ft AGL 186 209
2026-05-08 23:23:38 Gear DOWN, IAS 186kt, GS 178kt, ALT 209ft AGL 186 214
2026-05-08 23:23:38 Taxi Lights OFF 186 218
2026-05-08 23:23:39 Taxi Lights ON 187 266
2026-05-08 23:23:42 Taxi Lights OFF 190 438
2026-05-08 23:23:54 Gear UP, IAS 198kt, GS 182kt, ALT 1261ft AGL 198 1267
2026-05-08 23:24:42 FLAPS 0% 224kt, ALT 4412ft 224 4412
2026-05-08 23:26:53 Landing lights ON above 10000fts 278 11007
2026-05-08 23:35:11 Aircraft on Top Of Climb at 34298ft, IAS 261kt, GS 389kt, HDG 26deg, TAT -47deg, WIND 316/100kt 261 34298
2026-05-09 00:57:00 FLAPS 25% 182kt, ALT 9163ft 182 9163
2026-05-09 00:57:24 FLAPS 50% 174kt, ALT 8829ft 174 8829
2026-05-09 00:58:25 FLAPS 75% 156kt, ALT 7811ft 156 7811
2026-05-09 00:58:36 Gear DOWN, IAS 157kt, GS 165kt, ALT 5684ft AGL 157 7576
2026-05-09 00:58:43 Taxi Lights ON 157 7426
2026-05-09 00:58:54 FLAPS 100% 155kt, ALT 7171ft 155 7171
2026-05-09 01:04:39 Aircraft on Top Of Descent at 2839ft, IAS 132kt, GS 129kt, HDG 6deg, TAT 25deg, WIND 5/14kt 132 2839
2026-05-09 01:06:19 Landed at destination with a landing rate of -260fpm, G-force 1.1g, Pitch -3.8deg, Bank -0.7deg, HDG 7deg, IAS 123kt, GS 127kt, Wind 020/04kt, Temp 24°C 123 1831
2026-05-09 01:06:40 Aircraft taxiing to apron 27 1831
2026-05-09 01:06:42 FLAPS 0% 17 1831
2026-05-09 01:12:50 Landing Lights OFF 0 1830
2026-05-09 01:12:55 Beacon Lights OFF 0 1830
2026-05-09 01:12:56 Strobe Lights OFF 0 1830
2026-05-09 01:13:05 Aircraft at gate/stand, ground services are moving into position, disembarkation has begun. Remaining FOB 6572kg FLYacars v1.3.5 0 1830
viserfly

ACARS DATA

DATE IAS GS ALTITUDE FUEL CONSUMED OAT FLIGHT STATUS
2026-05-08 23:22:29 7 0 17 5 14 BOARDING
2026-05-08 23:22:59 8 0 17 10 14 BOARDING
2026-05-08 23:23:29 156 150 20 48 14 TAKEOFF
2026-05-08 23:23:59 204 186 1612 104 12 INITIAL CLIMB
2026-05-08 23:24:29 221 220 3508 157 9 CLIMB
2026-05-08 23:24:59 236 269 5372 210 7 CLIMB
2026-05-08 23:25:29 249 278 7170 262 7 CLIMB
2026-05-08 23:25:59 246 274 9201 310 4 CLIMB
2026-05-08 23:26:29 250 286 10039 350 2 CLIMB
2026-05-08 23:26:59 280 321 11427 396 0 CLIMB
2026-05-08 23:27:29 279 324 13778 440 -5 CLIMB
2026-05-08 23:27:59 279 333 15816 483 -8 CLIMB
2026-05-08 23:28:30 279 341 17679 526 -11 CLIMB
2026-05-08 23:29:00 281 349 19441 567 -14 CLIMB
2026-05-08 23:29:30 280 353 21192 605 -17 CLIMB
2026-05-08 23:30:00 280 356 22777 643 -21 CLIMB
2026-05-08 23:30:30 279 361 24238 680 -24 CLIMB
2026-05-08 23:31:00 280 371 25488 714 -27 CLIMB
2026-05-08 23:31:30 282 381 26556 744 -29 CLIMB
2026-05-08 23:32:00 281 389 27633 774 -31 CLIMB
2026-05-08 23:32:30 281 396 28656 804 -34 CLIMB
2026-05-08 23:33:00 280 405 29566 832 -35 CLIMB
2026-05-08 23:33:30 283 415 30220 860 -37 CLIMB
2026-05-08 23:34:00 278 412 31425 888 -40 CLIMB
2026-05-08 23:34:30 267 397 32989 914 -44 CLIMB
2026-05-08 23:35:00 262 390 34168 938 -47 CLIMB
2026-05-08 23:35:30 259 387 34316 956 -47 ENROUTE
2026-05-08 23:36:00 259 386 34313 973 -47 ENROUTE
2026-05-08 23:36:30 258 387 34349 992 -47 ENROUTE
2026-05-08 23:37:00 259 389 34354 1010 -47 ENROUTE
2026-05-08 23:37:30 260 389 34351 1026 -47 ENROUTE
2026-05-08 23:38:00 259 389 34356 1044 -47 ENROUTE
2026-05-08 23:38:30 259 389 34384 1061 -47 ENROUTE
2026-05-08 23:39:00 257 390 34415 1079 -47 ENROUTE
2026-05-08 23:39:30 259 393 34435 1098 -47 ENROUTE
2026-05-08 23:40:00 259 393 34436 1116 -47 ENROUTE
2026-05-08 23:40:30 259 393 34435 1133 -47 ENROUTE
2026-05-08 23:41:00 259 393 34436 1150 -47 ENROUTE
2026-05-08 23:41:30 257 393 34443 1168 -47 ENROUTE
2026-05-08 23:42:00 258 396 34465 1185 -47 ENROUTE
2026-05-08 23:42:30 259 397 34464 1203 -47 ENROUTE
2026-05-08 23:43:00 259 397 34466 1221 -47 ENROUTE
2026-05-08 23:43:30 259 396 34465 1237 -47 ENROUTE
2026-05-08 23:44:00 258 397 34496 1255 -46 ENROUTE
2026-05-08 23:44:30 258 401 34532 1274 -47 ENROUTE
2026-05-08 23:45:00 259 402 34530 1291 -46 ENROUTE
2026-05-08 23:45:30 259 402 34532 1309 -47 ENROUTE
2026-05-08 23:46:00 259 402 34533 1327 -47 ENROUTE
2026-05-08 23:46:30 259 402 34531 1343 -46 ENROUTE
2026-05-08 23:47:00 258 405 34559 1362 -46 ENROUTE
2026-05-08 23:47:30 259 405 34558 1380 -46 ENROUTE
2026-05-08 23:48:00 259 405 34560 1397 -46 ENROUTE
2026-05-08 23:48:30 259 406 34558 1414 -46 ENROUTE
2026-05-08 23:49:00 259 405 34559 1431 -46 ENROUTE
2026-05-08 23:49:30 258 408 34619 1449 -46 ENROUTE
2026-05-08 23:50:00 259 409 34620 1468 -46 ENROUTE
2026-05-08 23:50:30 259 409 34624 1485 -46 ENROUTE
2026-05-08 23:51:00 259 409 34624 1503 -46 ENROUTE
2026-05-08 23:51:30 259 408 34624 1520 -46 ENROUTE
2026-05-08 23:52:00 259 408 34623 1537 -46 ENROUTE
2026-05-08 23:52:30 259 408 34622 1554 -46 ENROUTE
2026-05-08 23:53:00 259 408 34621 1572 -46 ENROUTE
2026-05-08 23:53:30 259 408 34620 1589 -46 ENROUTE
2026-05-08 23:54:00 258 408 34619 1607 -46 ENROUTE
2026-05-08 23:54:30 258 410 34653 1625 -45 ENROUTE
2026-05-08 23:55:00 258 411 34670 1643 -45 ENROUTE
2026-05-08 23:55:30 259 411 34671 1661 -45 ENROUTE
2026-05-08 23:56:00 259 411 34672 1678 -45 ENROUTE
2026-05-08 23:56:30 258 411 34672 1695 -45 ENROUTE
2026-05-08 23:57:00 258 412 34698 1713 -45 ENROUTE
2026-05-08 23:57:30 259 412 34697 1731 -45 ENROUTE
2026-05-08 23:58:00 259 413 34704 1749 -45 ENROUTE
2026-05-08 23:58:30 258 413 34699 1766 -45 ENROUTE
2026-05-08 23:59:00 258 413 34700 1784 -45 ENROUTE
2026-05-08 23:59:30 258 416 34724 1802 -45 ENROUTE
2026-05-09 00:00:00 257 418 34742 1820 -45 ENROUTE
2026-05-09 00:00:30 258 420 34748 1837 -45 ENROUTE
2026-05-09 00:01:00 258 420 34748 1855 -45 ENROUTE
2026-05-09 00:01:30 257 420 34745 1873 -44 ENROUTE
2026-05-09 00:02:00 258 424 34772 1891 -44 ENROUTE
2026-05-09 00:02:30 258 424 34772 1909 -44 ENROUTE
2026-05-09 00:03:00 258 424 34773 1927 -44 ENROUTE
2026-05-09 00:03:30 258 424 34772 1945 -44 ENROUTE
2026-05-09 00:04:00 257 425 34775 1961 -44 ENROUTE
2026-05-09 00:04:30 258 426 34785 1980 -44 ENROUTE
2026-05-09 00:05:00 258 427 34793 1998 -44 ENROUTE
2026-05-09 00:05:30 258 427 34808 2015 -44 ENROUTE
2026-05-09 00:06:00 258 427 34808 2033 -44 ENROUTE
2026-05-09 00:06:30 259 427 34824 2051 -44 ENROUTE
2026-05-09 00:07:00 258 426 34827 2069 -44 ENROUTE
2026-05-09 00:07:30 258 426 34829 2085 -44 ENROUTE
2026-05-09 00:08:00 258 426 34828 2102 -44 ENROUTE
2026-05-09 00:08:30 258 426 34826 2121 -44 ENROUTE
2026-05-09 00:09:00 257 427 34835 2138 -44 ENROUTE
2026-05-09 00:09:30 258 428 34833 2156 -44 ENROUTE
2026-05-09 00:10:00 258 428 34834 2174 -44 ENROUTE
2026-05-09 00:10:30 258 429 34854 2191 -44 ENROUTE
2026-05-09 00:11:00 258 429 34854 2209 -44 ENROUTE
2026-05-09 00:11:30 258 430 34865 2226 -44 ENROUTE
2026-05-09 00:12:00 258 431 34866 2244 -44 ENROUTE
2026-05-09 00:12:30 258 431 34869 2261 -44 ENROUTE
2026-05-09 00:13:00 258 430 34868 2279 -44 ENROUTE
2026-05-09 00:13:30 258 431 34867 2297 -44 ENROUTE
2026-05-09 00:14:00 258 431 34875 2314 -44 ENROUTE
2026-05-09 00:14:30 258 431 34871 2332 -44 ENROUTE
2026-05-09 00:15:00 258 431 34874 2349 -44 ENROUTE
2026-05-09 00:15:30 257 432 34879 2366 -44 ENROUTE
2026-05-09 00:16:00 258 433 34882 2384 -44 ENROUTE
2026-05-09 00:16:30 258 433 34882 2403 -44 ENROUTE
2026-05-09 00:17:00 258 433 34882 2420 -44 ENROUTE
2026-05-09 00:17:30 258 433 34880 2437 -44 ENROUTE
2026-05-09 00:18:00 258 433 34879 2455 -44 ENROUTE
2026-05-09 00:18:30 257 434 34892 2472 -44 ENROUTE
2026-05-09 00:19:00 258 435 34897 2491 -44 ENROUTE
2026-05-09 00:19:30 258 436 34891 2507 -44 ENROUTE
2026-05-09 00:20:00 258 436 34893 2525 -44 ENROUTE
2026-05-09 00:20:30 258 435 34896 2543 -44 ENROUTE
2026-05-09 00:21:00 256 438 34909 2561 -44 ENROUTE
2026-05-09 00:21:30 257 441 34906 2579 -44 ENROUTE
2026-05-09 00:22:00 258 441 34907 2596 -44 ENROUTE
2026-05-09 00:22:30 257 441 34911 2614 -44 ENROUTE
2026-05-09 00:23:00 260 440 34442 2629 -43 DESCENT
2026-05-09 00:23:30 256 429 33600 2634 -41 DESCENT
2026-05-09 00:24:00 252 419 32756 2637 -38 DESCENT
2026-05-09 00:24:30 249 409 31911 2642 -37 DESCENT
2026-05-09 00:25:00 247 400 31068 2645 -34 DESCENT
2026-05-09 00:25:30 246 391 30223 2649 -32 DESCENT
2026-05-09 00:26:00 246 384 29377 2652 -30 DESCENT
2026-05-09 00:26:30 245 376 28530 2656 -28 DESCENT
2026-05-09 00:27:00 245 370 27685 2661 -27 DESCENT
2026-05-09 00:27:30 244 363 26838 2665 -25 DESCENT
2026-05-09 00:28:00 244 357 25994 2668 -23 DESCENT
2026-05-09 00:28:30 243 352 25145 2672 -20 DESCENT
2026-05-09 00:29:00 242 346 24298 2676 -18 DESCENT
2026-05-09 00:29:30 243 340 23452 2679 -17 DESCENT
2026-05-09 00:30:00 242 334 22604 2684 -15 DESCENT
2026-05-09 00:30:30 243 329 21758 2687 -13 DESCENT
2026-05-09 00:31:00 242 323 20911 2691 -11 DESCENT
2026-05-09 00:31:30 242 317 20062 2696 -9 DESCENT
2026-05-09 00:32:00 240 311 19217 2700 -7 DESCENT
2026-05-09 00:32:30 239 306 18370 2704 -5 DESCENT
2026-05-09 00:33:00 239 302 17527 2708 -4 DESCENT
2026-05-09 00:33:30 227 286 17032 2712 -3 ENROUTE
2026-05-09 00:34:00 209 261 16859 2717 -2 DESCENT
2026-05-09 00:34:30 193 241 16662 2721 -2 DESCENT
2026-05-09 00:35:00 185 229 16465 2731 -2 DESCENT
2026-05-09 00:35:30 185 229 16263 2749 -1 DESCENT
2026-05-09 00:36:00 185 229 16065 2767 -1 DESCENT
2026-05-09 00:36:30 185 228 15868 2784 0 DESCENT
2026-05-09 00:37:00 185 228 15667 2801 0 DESCENT
2026-05-09 00:37:30 185 227 15471 2818 0 DESCENT
2026-05-09 00:38:00 185 227 15271 2835 0 DESCENT
2026-05-09 00:38:30 185 226 15073 2852 0 DESCENT
2026-05-09 00:39:00 184 225 14872 2869 0 DESCENT
2026-05-09 00:39:30 185 225 14672 2886 1 DESCENT
2026-05-09 00:40:00 185 224 14475 2903 1 DESCENT
2026-05-09 00:40:30 185 223 14274 2919 1 DESCENT
2026-05-09 00:41:00 184 222 14076 2937 1 DESCENT
2026-05-09 00:41:30 185 222 13877 2953 1 DESCENT
2026-05-09 00:42:00 185 221 13678 2970 2 DESCENT
2026-05-09 00:42:30 184 219 13537 2988 2 ENROUTE
2026-05-09 00:43:00 184 219 13535 3009 2 ENROUTE
2026-05-09 00:43:30 184 219 13535 3030 2 ENROUTE
2026-05-09 00:44:00 184 219 13536 3052 2 ENROUTE
2026-05-09 00:44:30 184 219 13536 3073 2 ENROUTE
2026-05-09 00:45:00 184 219 13536 3094 2 ENROUTE
2026-05-09 00:45:30 184 219 13538 3116 2 ENROUTE
2026-05-09 00:46:00 184 219 13538 3137 2 ENROUTE
2026-05-09 00:46:30 184 219 13537 3158 2 ENROUTE
2026-05-09 00:47:00 184 219 13538 3180 2 ENROUTE
2026-05-09 00:47:30 183 219 13535 3202 2 ENROUTE
2026-05-09 00:48:00 184 219 13537 3224 2 ENROUTE
2026-05-09 00:48:30 184 219 13537 3246 2 ENROUTE
2026-05-09 00:49:00 184 219 13537 3268 2 ENROUTE
2026-05-09 00:49:30 184 219 13537 3289 2 ENROUTE
2026-05-09 00:50:00 184 219 13538 3310 2 ENROUTE
2026-05-09 00:50:30 183 219 13539 3332 2 ENROUTE
2026-05-09 00:51:00 184 218 13538 3354 1 ENROUTE
2026-05-09 00:51:30 183 217 13537 3374 1 ENROUTE
2026-05-09 00:52:00 183 217 13537 3396 1 ENROUTE
2026-05-09 00:52:30 183 217 13537 3419 1 ENROUTE
2026-05-09 00:53:00 184 217 13163 3430 2 DESCENT
2026-05-09 00:53:30 184 214 12663 3435 3 DESCENT
2026-05-09 00:54:00 184 213 12166 3442 3 DESCENT
2026-05-09 00:54:30 184 211 11667 3448 4 DESCENT
2026-05-09 00:55:00 184 209 11168 3454 5 DESCENT
2026-05-09 00:55:30 184 208 10670 3461 5 DESCENT
2026-05-09 00:56:00 184 206 10171 3468 6 DESCENT
2026-05-09 00:56:30 185 204 9673 3475 7 DESCENT
2026-05-09 00:57:00 182 213 9175 3481 9 DESCENT
2026-05-09 00:57:30 171 198 8745 3486 10 DESCENT
2026-05-09 00:58:00 162 178 8243 3492 11 DESCENT
2026-05-09 00:58:30 156 165 7726 3497 12 DESCENT
2026-05-09 00:59:00 151 156 7055 3504 14 DESCENT
2026-05-09 00:59:30 140 140 6380 3510 16 DESCENT
2026-05-09 01:00:00 133 131 5675 3517 18 DESCENT
2026-05-09 01:00:30 127 125 4968 3525 20 DESCENT
2026-05-09 01:01:00 126 120 4293 3532 22 APPROACH
2026-05-09 01:01:30 120 114 3719 3540 24 APPROACH
2026-05-09 01:02:00 121 113 3475 3565 24 APPROACH
2026-05-09 01:02:30 134 129 3749 3606 24 APPROACH
2026-05-09 01:03:00 133 128 3786 3639 23 APPROACH
2026-05-09 01:03:30 134 127 3492 3664 24 APPROACH
2026-05-09 01:04:00 131 125 3264 3690 25 APPROACH
2026-05-09 01:04:30 132 128 2953 3717 25 APPROACH
2026-05-09 01:05:00 130 132 2574 3741 25 ON FINAL
2026-05-09 01:05:30 130 134 2279 3767 24 ON FINAL
2026-05-09 01:06:00 126 131 1981 3790 24 ON FINAL
2026-05-09 01:06:30 80 80 1829 3811 24 ON FINAL
2026-05-09 01:07:00 17 15 1831 3821 24 TAXI TO APRON
2026-05-09 01:07:30 18 16 1832 3827 24 TAXI TO APRON
2026-05-09 01:08:00 13 11 1830 3833 24 TAXI TO APRON
2026-05-09 01:08:30 7 12 1830 3839 24 TAXI TO APRON
2026-05-09 01:09:00 10 14 1830 3845 24 TAXI TO APRON
2026-05-09 01:09:30 12 16 1830 3852 24 TAXI TO APRON
2026-05-09 01:10:00 14 18 1830 3857 24 TAXI TO APRON
2026-05-09 01:10:30 13 17 1829 3864 24 TAXI TO APRON
2026-05-09 01:11:00 4 8 1829 3870 24 TAXI TO APRON
2026-05-09 01:11:30 6 8 1829 3876 24 TAXI TO APRON
2026-05-09 01:12:00 0 3 1830 3882 24 TAXI TO APRON
2026-05-09 01:12:30 0 2 1830 3888 24 TAXI TO APRON
2026-05-09 01:13:00 0 0 1830 3891 24 TAXI TO APRON
  • Join our VA!

    It has been 11 years of great learning, friendships, and stories.

  • Sign up now!